Griffin, Indiana
Current Conditions -  °F | °C
As of 1:55 PM on Wednesday 28 Jan 2015 (Local Time) from KCUL Reporting Station
Clear Clear  
Wind Chill: 38°   Ceiling: Unl
Heat Index: 44°   Visibility: 10mi
Dew Point: 32°   Wind: 15mph
Humidity: 63%   Direction: 130°SE
Pressure: 30.2"   Gusts: 18mph
Location:  38.2°N, 87.91°W
Report Text: KCUL 281955Z AUTO 13013G16KT 10SM CLR 07/00 A3020 RMK AO2 T00690002
Loading
Personal Weather Stations






























Interactive Weather Map New forecast layout! Learn more

10-Day Weather Forecast

Advertisements
Track Severe Weather on mobile